createdAt,value
2023-05-06T00:00:20.910Z,0.80
2023-05-06T00:02:47.700Z,0.75
2023-05-06T00:05:18.435Z,0.30
2023-05-06T00:07:46.122Z,0.75
2023-05-06T00:10:13.092Z,0.80
2023-05-06T00:12:39.748Z,0.50
2023-05-06T00:15:07.711Z,1.00
2023-05-06T00:17:34.618Z,0.88
2023-05-06T00:20:01.298Z,0.40
2023-05-06T00:22:29.416Z,0.70
2023-05-06T00:24:56.005Z,0.80
2023-05-06T00:27:22.571Z,0.77
2023-05-06T00:29:49.182Z,0.82
2023-05-06T00:32:15.757Z,0.90
2023-05-06T00:34:42.794Z,0.65
2023-05-06T00:37:09.452Z,0.80
2023-05-06T00:39:37.452Z,0.80
2023-05-06T00:42:04.340Z,0.60
2023-05-06T00:44:32.145Z,0.40
2023-05-06T00:47:00.832Z,0.63
2023-05-06T00:49:29.019Z,0.75
2023-05-06T00:51:56.550Z,0.70
2023-05-06T00:54:24.765Z,0.80
2023-05-06T00:56:52.977Z,0.90
2023-05-06T00:59:19.872Z,0.80
2023-05-06T01:01:47.145Z,0.68
2023-05-06T01:04:13.767Z,0.93
2023-05-06T01:06:48.127Z,0.75
2023-05-06T01:09:20.709Z,0.63
2023-05-06T01:11:52.796Z,0.60
2023-05-06T01:14:28.895Z,0.35
2023-05-06T01:17:00.169Z,0.38
2023-05-06T01:19:38.873Z,0.40
2023-05-06T01:22:07.256Z,0.45
2023-05-06T01:24:39.826Z,0.40
2023-05-06T01:27:06.771Z,0.73
2023-05-06T01:29:35.519Z,0.70
2023-05-06T01:32:13.331Z,0.43
2023-05-06T01:34:46.332Z,0.52
2023-05-06T01:37:22.058Z,0.60
2023-05-06T01:39:51.599Z,0.60
2023-05-06T01:42:18.935Z,0.50
2023-05-06T01:44:48.620Z,0.43
2023-05-06T01:47:15.798Z,0.40
2023-05-06T01:49:42.761Z,0.50
2023-05-06T01:52:09.373Z,0.47
2023-05-06T01:54:36.071Z,0.60
2023-05-06T01:57:04.092Z,0.88
2023-05-06T01:59:30.691Z,0.70
2023-05-06T02:01:57.360Z,0.70
2023-05-06T02:04:24.007Z,0.35
2023-05-06T02:06:50.768Z,0.40
2023-05-06T02:09:17.400Z,0.52
2023-05-06T02:11:43.985Z,0.63
2023-05-06T02:14:11.989Z,0.52
2023-05-06T02:16:38.647Z,0.50
2023-05-06T02:19:06.358Z,0.70
2023-05-06T02:21:33.107Z,0.60
2023-05-06T02:23:59.716Z,0.50
2023-05-06T02:26:26.546Z,0.73
2023-05-06T02:28:53.128Z,0.50
2023-05-06T02:31:21.139Z,0.50
2023-05-06T02:33:47.929Z,0.52
2023-05-06T02:36:14.839Z,0.40
2023-05-06T02:38:41.478Z,0.60
2023-05-06T02:41:08.077Z,0.60
2023-05-06T02:43:34.816Z,0.50
2023-05-06T02:46:01.493Z,0.70
2023-05-06T02:48:29.620Z,0.40
2023-05-06T02:50:56.230Z,0.57
2023-05-06T02:53:22.816Z,0.55
2023-05-06T02:55:49.402Z,0.50
2023-05-06T02:58:16.074Z,0.50
2023-05-06T03:00:42.665Z,0.50
2023-05-06T03:03:09.870Z,0.47
2023-05-06T03:05:37.781Z,0.40
2023-05-06T03:08:04.777Z,0.50
2023-05-06T03:10:31.389Z,0.65
2023-05-06T03:12:57.964Z,0.40
2023-05-06T03:15:24.526Z,0.50
2023-05-06T03:17:51.137Z,0.20
2023-05-06T03:20:17.744Z,0.22
2023-05-06T03:22:45.688Z,0.40
2023-05-06T03:25:12.500Z,0.50
2023-05-06T03:27:39.274Z,0.60
2023-05-06T03:30:07.067Z,0.22
2023-05-06T03:32:33.792Z,0.55
2023-05-06T03:35:00.578Z,0.52
2023-05-06T03:37:27.128Z,0.50
2023-05-06T03:39:54.984Z,0.40
2023-05-06T03:42:21.680Z,0.55
2023-05-06T03:44:48.223Z,0.50
2023-05-06T03:47:14.785Z,0.47
2023-05-06T03:49:41.313Z,0.40
2023-05-06T03:52:08.066Z,0.40
2023-05-06T03:54:34.637Z,0.57
2023-05-06T03:57:02.527Z,0.30
2023-05-06T03:59:29.077Z,0.40
2023-05-06T04:01:56.326Z,0.45
2023-05-06T04:04:23.122Z,0.40
2023-05-06T04:06:49.776Z,0.50
2023-05-06T04:09:16.362Z,0.43
2023-05-06T04:11:42.953Z,0.35
2023-05-06T04:14:10.962Z,0.40
2023-05-06T04:16:37.637Z,0.40
2023-05-06T04:19:06.491Z,0.57
2023-05-06T04:21:33.338Z,0.40
2023-05-06T04:23:59.957Z,0.40
2023-05-06T04:26:26.546Z,0.70
2023-05-06T04:28:53.178Z,0.30
2023-05-06T04:31:21.248Z,0.40
2023-05-06T04:33:47.867Z,0.30
2023-05-06T04:36:14.523Z,0.47
2023-05-06T04:38:41.783Z,0.60
2023-05-06T04:41:08.472Z,0.55
2023-05-06T04:43:35.168Z,0.50
2023-05-06T04:46:02.271Z,0.40
2023-05-06T04:48:30.289Z,0.25
2023-05-06T04:50:56.981Z,0.30
2023-05-06T04:53:23.602Z,0.70
2023-05-06T04:55:50.265Z,0.65
2023-05-06T04:58:16.962Z,0.93
2023-05-06T05:00:43.589Z,0.45
2023-05-06T05:03:10.355Z,0.88
2023-05-06T05:05:38.529Z,0.80
2023-05-06T05:08:05.759Z,0.55
2023-05-06T05:10:32.404Z,0.50
2023-05-06T05:12:59.106Z,0.40
2023-05-06T05:15:25.795Z,0.40
2023-05-06T05:17:52.451Z,0.50
2023-05-06T05:20:19.103Z,0.50
2023-05-06T05:22:47.038Z,0.82
2023-05-06T05:25:14.217Z,0.50
2023-05-06T05:27:42.263Z,0.50
2023-05-06T05:30:09.842Z,0.50
2023-05-06T05:32:36.617Z,0.63
2023-05-06T05:35:03.591Z,0.50
2023-05-06T05:37:31.111Z,0.50
2023-05-06T05:39:59.085Z,0.50
2023-05-06T05:42:25.663Z,0.50
2023-05-06T05:44:52.633Z,0.38
2023-05-06T05:47:19.256Z,0.50
2023-05-06T05:49:45.842Z,0.47
2023-05-06T05:52:12.506Z,0.73
2023-05-06T05:54:39.098Z,0.90
2023-05-06T05:57:07.062Z,0.50
2023-05-06T05:59:33.812Z,1.00
2023-05-06T06:02:00.378Z,0.60
2023-05-06T06:04:27.086Z,1.20
2023-05-06T06:06:53.835Z,1.08
2023-05-06T06:09:20.733Z,1.20
2023-05-06T06:11:47.380Z,1.30
2023-05-06T06:14:15.384Z,1.30
2023-05-06T06:16:42.200Z,1.42
2023-05-06T06:19:09.018Z,1.20
2023-05-06T06:21:35.963Z,1.00
2023-05-06T06:24:02.712Z,1.20
2023-05-06T06:26:29.318Z,1.13
2023-05-06T06:28:55.912Z,1.35
2023-05-06T06:31:23.878Z,1.33
2023-05-06T06:33:50.584Z,0.50
2023-05-06T06:36:17.245Z,0.80
2023-05-06T06:38:43.858Z,1.20
2023-05-06T06:41:10.572Z,0.75
2023-05-06T06:43:37.296Z,0.90
2023-05-06T06:46:04.008Z,1.23
2023-05-06T06:48:31.976Z,1.10
2023-05-06T06:50:58.581Z,1.38
2023-05-06T06:53:25.270Z,0.82
2023-05-06T06:55:51.890Z,1.00
2023-05-06T06:58:18.520Z,1.20
2023-05-06T07:00:45.425Z,1.30
2023-05-06T07:03:15.484Z,1.00
2023-05-06T07:05:44.182Z,0.98
2023-05-06T07:08:11.238Z,1.00
2023-05-06T07:10:37.921Z,0.80
2023-05-06T07:13:04.550Z,0.85
2023-05-06T07:15:31.220Z,1.00
2023-05-06T07:17:57.904Z,1.58
2023-05-06T07:20:24.565Z,1.63
2023-05-06T07:22:52.547Z,1.35
2023-05-06T07:25:19.374Z,0.90
2023-05-06T07:27:46.158Z,0.77
2023-05-06T07:30:13.474Z,1.00
2023-05-06T07:32:41.341Z,0.75
2023-05-06T07:35:09.189Z,0.75
2023-05-06T07:37:36.224Z,0.70
2023-05-06T07:40:05.161Z,0.77
2023-05-06T07:42:31.782Z,0.80
2023-05-06T07:44:58.401Z,0.80
2023-05-06T07:47:31.339Z,0.95
2023-05-06T07:49:58.840Z,0.98
2023-05-06T07:52:26.087Z,1.00
2023-05-06T07:54:53.297Z,0.85
2023-05-06T07:57:21.360Z,1.05
2023-05-06T07:59:48.960Z,0.95
2023-05-06T08:02:16.127Z,0.80
2023-05-06T08:04:43.169Z,0.90
2023-05-06T08:07:10.382Z,1.05
2023-05-06T08:09:37.033Z,0.90
2023-05-06T08:12:04.001Z,0.77
2023-05-06T08:14:31.883Z,0.90
2023-05-06T08:16:58.500Z,1.10
2023-05-06T08:19:25.105Z,1.17
2023-05-06T08:21:51.877Z,0.93
2023-05-06T08:24:18.580Z,1.52
2023-05-06T08:26:45.216Z,1.30
2023-05-06T08:29:11.783Z,0.90
2023-05-06T08:31:39.810Z,0.90
2023-05-06T08:34:06.392Z,1.08
2023-05-06T08:36:32.965Z,0.80
2023-05-06T08:38:59.512Z,1.20
2023-05-06T08:41:27.392Z,1.23
2023-05-06T08:43:55.006Z,1.00
2023-05-06T08:46:21.834Z,1.10
2023-05-06T08:48:49.805Z,0.90
2023-05-06T08:51:16.834Z,1.45
2023-05-06T08:53:48.404Z,1.00
2023-05-06T08:56:16.516Z,1.13
2023-05-06T08:58:45.649Z,1.40
2023-05-06T09:01:12.430Z,1.00
2023-05-06T09:03:39.106Z,1.17
2023-05-06T09:06:07.309Z,1.27
2023-05-06T09:08:33.921Z,0.85
2023-05-06T09:11:00.601Z,1.40
2023-05-06T09:13:27.362Z,1.30
2023-05-06T09:15:55.233Z,1.13
2023-05-06T09:18:22.678Z,1.13
2023-05-06T09:20:49.864Z,1.30
2023-05-06T09:23:18.453Z,1.40
2023-05-06T09:25:46.755Z,1.47
2023-05-06T09:28:14.442Z,1.45
2023-05-06T09:30:42.607Z,1.20
2023-05-06T09:33:09.841Z,1.73
2023-05-06T09:35:38.260Z,0.80
2023-05-06T09:38:07.046Z,1.50
2023-05-06T09:40:35.994Z,1.30
2023-05-06T09:43:03.428Z,1.40
2023-05-06T09:45:30.750Z,1.65
2023-05-06T09:47:58.616Z,1.30
2023-05-06T09:50:26.404Z,1.38
2023-05-06T09:52:54.819Z,1.35
2023-05-06T09:55:23.042Z,1.33
2023-05-06T09:57:51.241Z,1.13
2023-05-06T10:00:18.857Z,1.60
2023-05-06T10:02:47.768Z,1.48
2023-05-06T10:05:14.959Z,1.48
2023-05-06T10:07:42.293Z,1.30
2023-05-06T10:10:14.226Z,1.05
2023-05-06T10:12:43.035Z,1.10
2023-05-06T10:15:12.157Z,1.02
2023-05-06T10:17:41.711Z,1.30
2023-05-06T10:22:43.872Z,1.10
2023-05-06T10:25:19.258Z,1.30
2023-05-06T10:27:46.722Z,1.38
2023-05-06T10:30:17.151Z,1.05
2023-05-06T10:32:44.882Z,1.20
2023-05-06T10:35:32.130Z,1.13
2023-05-06T10:38:02.607Z,1.42
2023-05-06T10:40:29.549Z,1.48
2023-05-06T10:43:21.205Z,1.17
2023-05-06T10:46:01.488Z,1.23
2023-05-06T10:48:28.671Z,1.25
2023-05-06T10:51:32.060Z,1.13
2023-05-06T10:54:03.683Z,1.08
2023-05-06T10:56:32.136Z,0.90
2023-05-06T10:59:04.064Z,1.53
2023-05-06T11:01:32.216Z,1.08
2023-05-06T11:04:04.636Z,1.10
2023-05-06T11:06:36.194Z,1.05
2023-05-06T11:09:04.292Z,0.90
2023-05-06T11:11:50.974Z,0.82
2023-05-06T11:14:29.933Z,1.15
2023-05-06T11:16:59.987Z,0.82
2023-05-06T11:19:28.445Z,0.82
2023-05-06T11:21:57.498Z,0.80
2023-05-06T11:24:26.851Z,0.98
2023-05-06T11:26:54.274Z,0.93
2023-05-06T11:29:21.773Z,1.02
2023-05-06T11:31:49.591Z,0.95
2023-05-06T11:34:23.977Z,1.20
2023-05-06T11:36:58.900Z,1.00
2023-05-06T11:39:30.358Z,0.98
2023-05-06T11:41:59.029Z,0.77
2023-05-06T11:44:30.419Z,1.20
2023-05-06T11:47:01.628Z,1.75
2023-05-06T11:49:30.068Z,2.05
2023-05-06T11:51:57.170Z,1.97
2023-05-06T11:54:26.281Z,2.30
2023-05-06T11:56:54.267Z,2.58
2023-05-06T11:59:29.691Z,2.55
2023-05-06T12:01:58.036Z,2.65
2023-05-06T12:04:24.727Z,2.20
2023-05-06T12:06:55.331Z,1.90
2023-05-06T12:09:22.769Z,2.20
2023-05-06T12:11:50.258Z,2.05
2023-05-06T12:14:17.319Z,2.00
2023-05-06T12:16:44.152Z,1.60
2023-05-06T12:19:10.889Z,1.83
2023-05-06T12:21:38.621Z,2.17
2023-05-06T12:24:07.075Z,1.88
2023-05-06T12:26:47.684Z,1.63
2023-05-06T12:29:19.603Z,1.70
2023-05-06T12:31:47.269Z,1.73
2023-05-06T12:34:14.636Z,1.50
2023-05-06T12:36:42.998Z,1.80
2023-05-06T12:39:14.134Z,1.35
2023-05-06T12:41:42.682Z,1.67
2023-05-06T12:44:34.501Z,1.65
2023-05-06T12:47:02.692Z,1.30
2023-05-06T12:49:45.373Z,1.75
2023-05-06T12:52:12.480Z,1.75
2023-05-06T12:54:40.426Z,1.65
2023-05-06T12:57:07.522Z,1.60
2023-05-06T12:59:36.154Z,1.30
2023-05-06T13:02:02.821Z,1.90
2023-05-06T13:04:29.490Z,1.30
2023-05-06T13:06:57.013Z,1.45
2023-05-06T13:09:23.992Z,1.73
2023-05-06T13:11:51.974Z,1.50
2023-05-06T13:14:18.602Z,1.50
2023-05-06T13:16:45.604Z,1.42
2023-05-06T13:19:18.159Z,1.45
2023-05-06T13:24:18.074Z,1.50
2023-05-06T13:26:44.894Z,1.60
2023-05-06T13:29:12.799Z,1.67
2023-05-06T13:31:40.196Z,1.40
2023-05-06T13:34:06.793Z,1.50
2023-05-06T13:36:33.359Z,1.40
2023-05-06T13:39:00.510Z,1.83
2023-05-06T13:41:27.086Z,1.40
2023-05-06T13:43:53.682Z,1.23
2023-05-06T13:46:23.109Z,1.60
2023-05-06T13:48:49.819Z,1.73
2023-05-06T13:51:16.387Z,1.50
2023-05-06T13:53:43.045Z,1.50
2023-05-06T13:56:09.670Z,1.45
2023-05-06T13:58:36.327Z,1.50
2023-05-06T14:01:03.605Z,1.23
2023-05-06T14:03:31.596Z,1.38
2023-05-06T14:05:58.259Z,1.30
2023-05-06T14:08:24.942Z,1.50
2023-05-06T14:10:51.541Z,1.33
2023-05-06T14:13:18.149Z,1.67
2023-05-06T14:15:44.821Z,1.30
2023-05-06T14:18:11.619Z,1.45
2023-05-06T14:20:39.598Z,1.75
2023-05-06T14:23:06.905Z,1.50
2023-05-06T14:25:33.758Z,1.83
2023-05-06T14:28:00.517Z,1.73
2023-05-06T14:30:27.329Z,1.45
2023-05-06T14:32:54.134Z,1.63
2023-05-06T14:35:21.198Z,1.65
2023-05-06T14:37:49.167Z,1.50
2023-05-06T14:40:16.971Z,1.90
2023-05-06T14:42:44.018Z,1.10
2023-05-06T14:45:11.735Z,2.30
2023-05-06T14:47:38.873Z,1.55
2023-05-06T14:50:08.933Z,1.65
2023-05-06T14:52:36.265Z,1.55
2023-05-06T14:55:07.323Z,1.50
2023-05-06T14:57:34.383Z,1.38
2023-05-06T15:00:02.636Z,1.45
2023-05-06T15:02:29.270Z,1.95
2023-05-06T15:04:55.990Z,1.70
2023-05-06T15:07:22.711Z,1.40
2023-05-06T15:09:49.346Z,1.50
2023-05-06T15:12:17.293Z,1.50
2023-05-06T15:14:43.989Z,1.30
2023-05-06T15:17:10.754Z,2.60
2023-05-06T15:19:37.728Z,2.05
2023-05-06T15:22:04.469Z,1.65
2023-05-06T15:24:31.181Z,4.22
2023-05-06T15:26:57.883Z,3.85
2023-05-06T15:29:26.179Z,2.80
2023-05-06T15:31:53.013Z,1.40
2023-05-06T15:34:20.692Z,1.60
2023-05-06T15:36:54.231Z,1.70
2023-05-06T15:39:22.213Z,1.40
2023-05-06T15:41:48.945Z,1.27
2023-05-06T15:44:16.313Z,1.60
2023-05-06T15:46:44.604Z,1.23
2023-05-06T15:51:40.837Z,1.13
2023-05-06T15:54:07.543Z,1.27
2023-05-06T15:56:39.434Z,1.10
2023-05-06T15:59:08.296Z,1.50
2023-05-06T16:02:04.632Z,1.70
2023-05-06T16:04:23.574Z,1.60
2023-05-06T16:06:50.373Z,1.90
2023-05-06T16:09:16.988Z,1.67
2023-05-06T16:11:43.638Z,1.80
2023-05-06T16:14:10.289Z,1.60
2023-05-06T16:16:37.347Z,2.05
2023-05-06T16:19:04.453Z,2.08
2023-05-06T16:21:32.468Z,1.85
2023-05-06T16:24:00.788Z,1.75
2023-05-06T16:26:27.410Z,2.00
2023-05-06T16:28:54.121Z,1.60
2023-05-06T16:31:21.173Z,1.70
2023-05-06T16:33:47.901Z,1.50
2023-05-06T16:36:14.829Z,1.67
2023-05-06T16:38:43.187Z,2.30
2023-05-06T16:41:09.766Z,2.10
2023-05-06T16:43:36.356Z,2.20
2023-05-06T16:46:02.953Z,2.38
2023-05-06T16:48:29.633Z,1.85
2023-05-06T16:50:56.294Z,1.85
2023-05-06T16:53:22.882Z,1.63
2023-05-06T16:55:50.846Z,1.98
2023-05-06T16:58:17.444Z,1.95
2023-05-06T17:00:44.159Z,1.40
2023-05-06T17:03:11.233Z,1.80
2023-05-06T17:05:38.031Z,1.60
2023-05-06T17:08:05.499Z,1.75
2023-05-06T17:10:32.149Z,1.73
2023-05-06T17:13:00.116Z,1.40
2023-05-06T17:15:26.764Z,1.33
2023-05-06T17:17:53.612Z,1.70
2023-05-06T17:20:20.812Z,1.88
2023-05-06T17:22:47.798Z,1.40
2023-05-06T17:25:14.808Z,1.70
2023-05-06T17:27:41.646Z,1.40
2023-05-06T17:30:10.333Z,1.60
2023-05-06T17:32:37.229Z,1.85
2023-05-06T17:35:04.638Z,1.55
2023-05-06T17:37:31.452Z,1.70
2023-05-06T17:39:58.031Z,1.73
2023-05-06T17:42:24.710Z,1.65
2023-05-06T17:44:51.309Z,1.40
2023-05-06T17:47:22.664Z,1.73
2023-05-06T17:49:50.577Z,1.75
2023-05-06T17:52:17.754Z,1.92
2023-05-06T17:54:44.361Z,2.00
2023-05-06T17:57:10.933Z,2.20
2023-05-06T17:59:37.581Z,2.17
2023-05-06T18:02:04.522Z,1.92
2023-05-06T18:04:32.567Z,2.00
2023-05-06T18:06:59.110Z,2.28
2023-05-06T18:09:25.840Z,1.90
2023-05-06T18:11:52.421Z,1.95
2023-05-06T18:14:19.049Z,2.10
2023-05-06T18:16:45.784Z,2.10
2023-05-06T18:19:12.542Z,1.90
2023-05-06T18:21:40.618Z,1.85
2023-05-06T18:24:15.933Z,1.60
2023-05-06T18:26:45.728Z,2.05
2023-05-06T18:29:12.879Z,2.05
2023-05-06T18:31:39.531Z,1.92
2023-05-06T18:34:06.310Z,2.05
2023-05-06T18:36:34.832Z,1.70
2023-05-06T18:39:02.824Z,2.00
2023-05-06T18:41:29.379Z,1.85
2023-05-06T18:43:55.946Z,1.85
2023-05-06T18:46:22.605Z,1.80
2023-05-06T18:48:49.280Z,1.85
2023-05-06T18:51:17.340Z,1.98
2023-05-06T18:53:44.833Z,1.80
2023-05-06T18:56:13.501Z,1.60
2023-05-06T18:58:40.673Z,1.45
2023-05-06T19:01:09.188Z,1.80
2023-05-06T19:03:37.101Z,1.98
2023-05-06T19:06:09.073Z,1.50
2023-05-06T19:08:36.727Z,2.10
2023-05-06T19:11:03.381Z,1.90
2023-05-06T19:13:31.545Z,1.85
2023-05-06T19:15:58.098Z,1.63
2023-05-06T19:18:24.663Z,2.05
2023-05-06T19:20:52.019Z,1.40
2023-05-06T19:23:20.071Z,1.40
2023-05-06T19:25:46.740Z,1.58
2023-05-06T19:28:13.410Z,1.77
2023-05-06T19:30:41.345Z,1.83
2023-05-06T19:33:08.017Z,1.67
2023-05-06T19:35:37.198Z,1.77
2023-05-06T19:38:04.571Z,1.45
2023-05-06T19:40:31.127Z,1.75
2023-05-06T19:43:03.635Z,1.70
2023-05-06T19:45:31.029Z,1.38
2023-05-06T19:47:59.053Z,1.70
2023-05-06T19:50:26.978Z,1.58
2023-05-06T19:52:53.530Z,1.52
2023-05-06T19:55:20.715Z,1.90
2023-05-06T19:57:47.319Z,1.65
2023-05-06T20:00:18.129Z,1.75
2023-05-06T20:02:45.367Z,2.33
2023-05-06T20:05:13.786Z,1.90
2023-05-06T20:07:41.243Z,1.98
2023-05-06T20:10:09.928Z,1.83
2023-05-06T20:12:36.523Z,1.63
2023-05-06T20:15:06.937Z,1.67
2023-05-06T20:17:34.592Z,1.98
2023-05-06T20:20:02.789Z,1.58
2023-05-06T20:22:32.675Z,1.73
2023-05-06T20:25:08.408Z,2.83
2023-05-06T20:27:35.038Z,1.90
2023-05-06T20:30:02.101Z,1.70
2023-05-06T20:32:29.013Z,2.13
2023-05-06T20:34:55.638Z,1.80
2023-05-06T20:37:22.189Z,1.90
2023-05-06T20:39:50.204Z,1.92
2023-05-06T20:42:16.794Z,2.10
2023-05-06T20:44:43.391Z,1.90
2023-05-06T20:47:12.463Z,2.13
2023-05-06T20:49:39.450Z,1.77
2023-05-06T20:52:07.760Z,2.00
2023-05-06T20:54:34.609Z,2.53
2023-05-06T20:57:02.716Z,1.83
2023-05-06T20:59:29.598Z,1.80
2023-05-06T21:01:56.511Z,1.70
2023-05-06T21:04:23.198Z,2.00
2023-05-06T21:06:49.997Z,1.70
2023-05-06T21:09:17.697Z,1.80
2023-05-06T21:11:44.595Z,1.88
2023-05-06T21:14:12.538Z,1.73
2023-05-06T21:16:39.771Z,1.80
2023-05-06T21:19:06.435Z,2.00
2023-05-06T21:21:33.279Z,1.90
2023-05-06T21:24:00.193Z,1.88
2023-05-06T21:26:26.850Z,1.70
2023-05-06T21:28:53.491Z,1.90
2023-05-06T21:31:23.929Z,1.75
2023-05-06T21:33:53.810Z,1.77
2023-05-06T21:36:20.535Z,1.80
2023-05-06T21:38:47.925Z,1.85
2023-05-06T21:41:14.733Z,1.88
2023-05-06T21:43:41.909Z,2.15
2023-05-06T21:46:08.556Z,1.77
2023-05-06T21:48:36.530Z,1.80
2023-05-06T21:51:03.615Z,1.70
2023-05-06T21:53:30.453Z,1.77
2023-05-06T21:55:57.481Z,1.35
2023-05-06T21:58:24.061Z,2.10
2023-05-06T22:00:50.699Z,2.30
2023-05-06T22:03:17.351Z,1.63
2023-05-06T22:05:45.578Z,1.58
2023-05-06T22:08:12.183Z,1.92
2023-05-06T22:10:38.803Z,1.90
2023-05-06T22:13:05.548Z,1.75
2023-05-06T22:15:32.166Z,1.70
2023-05-06T22:17:59.135Z,1.67
2023-05-06T22:20:25.853Z,1.60
2023-05-06T22:22:54.169Z,1.55
2023-05-06T22:25:21.018Z,1.80
2023-05-06T22:27:47.729Z,1.63
2023-05-06T22:30:16.278Z,1.52
2023-05-06T22:32:42.992Z,2.00
2023-05-06T22:35:09.935Z,1.70
2023-05-06T22:37:36.736Z,1.40
2023-05-06T22:40:07.901Z,1.80
2023-05-06T22:42:34.569Z,1.83
2023-05-06T22:45:01.626Z,1.70
2023-05-06T22:47:28.208Z,1.67
2023-05-06T22:49:54.811Z,2.13
2023-05-06T22:52:21.418Z,2.22
2023-05-06T22:54:48.051Z,1.85
2023-05-06T22:57:16.314Z,1.70
2023-05-06T22:59:42.945Z,1.65
2023-05-06T23:02:09.525Z,1.90
2023-05-06T23:04:36.181Z,1.80
2023-05-06T23:07:02.879Z,1.73
2023-05-06T23:09:29.467Z,2.00
2023-05-06T23:11:56.045Z,1.45
2023-05-06T23:14:24.072Z,2.00
2023-05-06T23:16:50.701Z,1.70
2023-05-06T23:19:17.381Z,1.70
2023-05-06T23:21:44.437Z,1.80
2023-05-06T23:24:11.697Z,1.80
2023-05-06T23:26:38.308Z,1.67
2023-05-06T23:29:05.036Z,1.40
2023-05-06T23:31:33.055Z,1.67
2023-05-06T23:33:59.669Z,1.77
2023-05-06T23:36:27.239Z,1.55
2023-05-06T23:38:53.823Z,1.88
2023-05-06T23:41:21.317Z,1.98
2023-05-06T23:43:47.900Z,2.00
2023-05-06T23:46:14.560Z,1.40
2023-05-06T23:48:42.638Z,1.60
2023-05-06T23:51:09.242Z,1.40
2023-05-06T23:53:36.089Z,1.50
2023-05-06T23:56:02.880Z,1.30
2023-05-06T23:58:29.489Z,1.70
